Time;durP1;ratioP1;P1;durP2;ratioP2;P2;SDS_P1;SDS_P2;PMS_P1;PMS_P2;Temp;Humidity;BMP_temperature;BMP_pressure;BME280_temperature;BME280_humidity;BME280_pressure;Samples;Min_cycle;Max_cycle;Signal;HPM_P1;HPM_P2
2022/10/06 00:02:10;;;;;;;;;;;15.80;93.50;;;;;;5053389;28;20006;-90
2022/10/06 00:04:35;;;;;;;;;;;15.80;93.50;;;;;;5053201;28;20389;-90
2022/10/06 00:07:01;;;;;;;;;;;15.80;93.40;;;;;;5051594;28;19945;-90
2022/10/06 00:09:26;;;;;;;;;;;15.80;93.40;;;;;;5053610;28;19944;-90
2022/10/06 00:11:52;;;;;;;;;;;15.70;93.10;;;;;;5053116;28;19946;-90
2022/10/06 00:14:17;;;;;;;;;;;15.60;93.00;;;;;;5054361;28;19947;-91
2022/10/06 00:16:43;;;;;;;;;;;15.60;93.00;;;;;;5052847;28;19944;-90
2022/10/06 00:19:08;;;;;;;;;;;15.50;92.80;;;;;;5043151;28;19939;-90
2022/10/06 00:21:34;;;;;;;;;;;15.40;92.80;;;;;;5054509;28;19952;-90
2022/10/06 00:24:00;;;;;;;;;;;15.50;93.00;;;;;;5055514;28;19940;-90
2022/10/06 00:26:25;;;;;;;;;;;15.40;93.00;;;;;;5051775;28;19952;-90
2022/10/06 00:28:51;;;;;;;;;;;15.40;93.00;;;;;;5039545;28;19959;-90
2022/10/06 00:31:18;;;;;;;;;;;15.40;92.90;;;;;;5054068;28;19953;-90
2022/10/06 00:33:44;;;;;;;;;;;15.40;92.80;;;;;;5054011;28;20052;-90
2022/10/06 00:36:10;;;;;;;;;;;15.40;92.70;;;;;;5053156;28;19939;-90
2022/10/06 00:38:35;;;;;;;;;;;15.40;92.80;;;;;;5038603;28;20908;-90
2022/10/06 00:41:01;;;;;;;;;;;15.40;92.80;;;;;;5053863;28;19965;-90
2022/10/06 00:43:39;;;;;;;;;;;15.50;93.00;;;;;;5053712;28;20388;-90
2022/10/06 00:46:06;;;;;;;;;;;15.50;93.00;;;;;;5053672;28;19945;-90
2022/10/06 00:48:32;;;;;;;;;;;15.50;93.10;;;;;;5056231;28;19960;-90
2022/10/06 00:50:58;;;;;;;;;;;15.50;93.10;;;;;;5053617;28;20019;-91
2022/10/06 00:53:25;;;;;;;;;;;15.60;93.00;;;;;;5053606;28;20034;-90
2022/10/06 00:55:52;;;;;;;;;;;15.50;92.70;;;;;;5053980;28;20448;-90
2022/10/06 00:58:18;;;;;;;;;;;15.40;92.70;;;;;;5024366;28;19942;-90
2022/10/06 01:00:44;;;;;;;;;;;15.40;92.80;;;;;;5053645;28;20429;-90
2022/10/06 01:03:16;;;;;;;;;;;15.40;93.00;;;;;;5053427;28;20030;-90
2022/10/06 01:05:45;;;;;;;;;;;15.40;93.30;;;;;;5053263;28;20071;-90
2022/10/06 01:08:11;;;;;;;;;;;15.50;93.40;;;;;;5040155;28;19968;-90
2022/10/06 01:10:36;;;;;;;;;;;15.40;93.70;;;;;;5051378;28;19944;-90
2022/10/06 01:13:02;;;;;;;;;;;15.40;93.80;;;;;;5052984;28;19938;-90
2022/10/06 01:15:28;;;;;;;;;;;15.40;93.90;;;;;;5052424;28;19988;-90
2022/10/06 01:17:56;;;;;;;;;;;15.50;93.90;;;;;;5041962;28;19942;-90
2022/10/06 01:20:22;;;;;;;;;;;15.60;94.00;;;;;;5050915;28;19949;-90
2022/10/06 01:22:50;;;;;;;;;;;15.60;94.00;;;;;;5052394;28;20484;-90
2022/10/06 01:25:17;;;;;;;;;;;15.80;94.00;;;;;;5053246;28;19948;-90
2022/10/06 01:27:44;;;;;;;;;;;15.70;93.90;;;;;;5025872;28;20515;-90
2022/10/06 01:30:16;;;;;;;;;;;15.70;93.90;;;;;;5040325;28;19942;-90
2022/10/06 01:32:41;;;;;;;;;;;15.80;93.80;;;;;;5053043;28;19974;-90
2022/10/06 01:35:07;;;;;;;;;;;15.70;93.80;;;;;;5052670;28;19947;-90
2022/10/06 01:37:33;;;;;;;;;;;15.70;93.90;;;;;;5044960;28;19959;-90
2022/10/06 01:39:58;;;;;;;;;;;15.80;93.90;;;;;;5050436;28;19945;-90
2022/10/06 01:42:24;;;;;;;;;;;15.80;93.90;;;;;;5052679;28;19956;-91
2022/10/06 01:44:50;;;;;;;;;;;15.90;93.90;;;;;;5051633;28;19962;-90
2022/10/06 01:47:15;;;;;;;;;;;15.90;93.80;;;;;;5048019;28;19945;-90
2022/10/06 01:49:41;;;;;;;;;;;15.90;93.80;;;;;;5049031;28;20397;-91
2022/10/06 01:52:07;;;;;;;;;;;15.90;93.70;;;;;;5051509;28;19963;-90
2022/10/06 01:54:32;;;;;;;;;;;16.00;93.60;;;;;;5052643;28;19942;-90
2022/10/06 01:56:58;;;;;;;;;;;16.10;93.60;;;;;;5050511;28;20336;-90
2022/10/06 01:59:23;;;;;;;;;;;16.10;93.50;;;;;;5051220;28;20380;-90
2022/10/06 02:01:49;;;;;;;;;;;16.10;93.40;;;;;;5052448;28;20047;-90
2022/10/06 02:04:15;;;;;;;;;;;16.10;93.40;;;;;;5053229;28;19939;-90
2022/10/06 02:06:40;;;;;;;;;;;16.20;93.40;;;;;;5051868;28;19948;-90
2022/10/06 02:09:06;;;;;;;;;;;16.10;93.20;;;;;;5033592;28;19969;-90
2022/10/06 02:11:31;;;;;;;;;;;16.10;93.30;;;;;;5050025;28;19973;-91
2022/10/06 02:13:57;;;;;;;;;;;16.20;93.50;;;;;;5052404;28;20316;-90
2022/10/06 02:16:22;;;;;;;;;;;16.20;93.40;;;;;;5051493;28;20339;-90
2022/10/06 02:18:48;;;;;;;;;;;16.20;93.20;;;;;;5037905;28;20016;-90
2022/10/06 02:21:15;;;;;;;;;;;16.20;93.10;;;;;;5052017;28;19948;-90
2022/10/06 02:23:40;;;;;;;;;;;16.10;93.10;;;;;;5052190;28;19946;-90
2022/10/06 02:26:06;;;;;;;;;;;16.10;93.10;;;;;;5051620;28;20015;-91
2022/10/06 02:28:31;;;;;;;;;;;16.10;93.00;;;;;;5045177;28;19961;-90
2022/10/06 02:31:01;;;;;;;;;;;16.10;93.20;;;;;;5052811;28;19949;-91
2022/10/06 02:33:26;;;;;;;;;;;16.10;93.30;;;;;;5053206;28;19946;-90
2022/10/06 02:35:55;;;;;;;;;;;16.20;93.20;;;;;;5051418;28;20317;-91
2022/10/06 02:38:21;;;;;;;;;;;16.20;93.10;;;;;;5052610;28;19948;-90
2022/10/06 02:40:46;;;;;;;;;;;16.20;93.00;;;;;;5052950;28;19947;-90
2022/10/06 02:43:12;;;;;;;;;;;16.20;92.90;;;;;;5053193;28;19948;-91
2022/10/06 02:45:37;;;;;;;;;;;16.20;93.10;;;;;;5053195;28;20451;-90
2022/10/06 02:48:03;;;;;;;;;;;16.20;93.10;;;;;;5040023;28;20333;-90
2022/10/06 02:50:29;;;;;;;;;;;16.20;93.00;;;;;;5052979;28;20414;-91
2022/10/06 02:52:54;;;;;;;;;;;16.30;93.10;;;;;;5052856;28;19943;-91
2022/10/06 02:55:20;;;;;;;;;;;16.30;93.10;;;;;;5052793;28;19938;-91
2022/10/06 02:57:45;;;;;;;;;;;16.30;93.10;;;;;;5052159;28;19948;-91
2022/10/06 03:00:11;;;;;;;;;;;16.30;93.00;;;;;;5052777;28;20450;-91
2022/10/06 03:02:37;;;;;;;;;;;16.40;92.90;;;;;;5052742;28;20414;-90
2022/10/06 03:05:02;;;;;;;;;;;16.30;92.80;;;;;;5052375;28;20059;-91
2022/10/06 03:07:28;;;;;;;;;;;16.40;92.70;;;;;;5047259;28;20067;-91
2022/10/06 03:09:54;;;;;;;;;;;16.40;92.70;;;;;;5040870;28;19941;-91
2022/10/06 03:12:20;;;;;;;;;;;16.40;92.70;;;;;;5034525;28;19947;-91
2022/10/06 03:14:45;;;;;;;;;;;16.40;92.70;;;;;;5052567;28;20050;-90
2022/10/06 03:17:11;;;;;;;;;;;16.40;92.70;;;;;;5052208;28;20000;-90
2022/10/06 03:19:36;;;;;;;;;;;16.40;92.50;;;;;;5052569;28;19944;-90
2022/10/06 03:22:02;;;;;;;;;;;16.40;92.50;;;;;;5052427;28;19966;-90
2022/10/06 03:24:28;;;;;;;;;;;16.40;92.60;;;;;;5052462;28;19948;-90
2022/10/06 03:26:53;;;;;;;;;;;16.40;92.50;;;;;;5052195;28;20285;-91
2022/10/06 03:29:19;;;;;;;;;;;16.40;92.50;;;;;;5052472;28;20390;-90
2022/10/06 03:31:44;;;;;;;;;;;16.30;92.60;;;;;;5052519;28;19949;-91
2022/10/06 03:34:10;;;;;;;;;;;16.40;92.80;;;;;;5052736;28;19946;-90
2022/10/06 03:36:36;;;;;;;;;;;16.40;92.80;;;;;;5052678;28;19942;-90
2022/10/06 03:39:03;;;;;;;;;;;16.40;92.90;;;;;;5055835;28;19958;-91
2022/10/06 03:41:30;;;;;;;;;;;16.40;92.90;;;;;;5036152;28;19996;-90
2022/10/06 03:43:56;;;;;;;;;;;16.40;92.80;;;;;;5043031;28;20011;-91
2022/10/06 03:46:23;;;;;;;;;;;16.40;92.80;;;;;;5056009;28;19980;-91
2022/10/06 03:48:49;;;;;;;;;;;16.40;92.70;;;;;;5055526;28;19965;-91
2022/10/06 03:51:16;;;;;;;;;;;16.50;92.70;;;;;;5055700;28;19958;-90
2022/10/06 03:53:43;;;;;;;;;;;16.50;92.60;;;;;;5055900;28;19953;-91
2022/10/06 03:56:09;;;;;;;;;;;16.50;92.60;;;;;;5062749;28;19938;-91
2022/10/06 03:58:35;;;;;;;;;;;16.50;92.70;;;;;;5043660;28;20420;-91
2022/10/06 04:01:21;;;;;;;;;;;16.60;92.60;;;;;;5055349;28;20439;-91
2022/10/06 04:03:47;;;;;;;;;;;16.60;92.50;;;;;;5055679;28;19946;-91
2022/10/06 04:06:13;;;;;;;;;;;16.60;92.50;;;;;;5055456;28;19949;-90
2022/10/06 04:08:40;;;;;;;;;;;16.60;92.50;;;;;;5054779;28;20025;-91
2022/10/06 04:11:05;;;;;;;;;;;16.60;92.50;;;;;;5055812;28;19941;-90
2022/10/06 04:13:31;;;;;;;;;;;16.60;92.60;;;;;;5037401;28;20002;-90
2022/10/06 04:15:56;;;;;;;;;;;16.60;92.70;;;;;;5055430;28;19946;-91
2022/10/06 04:18:22;;;;;;;;;;;16.70;92.80;;;;;;5037118;28;19946;-90
2022/10/06 04:20:48;;;;;;;;;;;16.60;92.80;;;;;;5055348;28;19938;-91
2022/10/06 04:23:15;;;;;;;;;;;16.60;92.80;;;;;;5054463;28;20427;-90
2022/10/06 04:25:40;;;;;;;;;;;16.60;92.90;;;;;;5055295;28;19943;-91
2022/10/06 04:28:06;;;;;;;;;;;16.60;93.00;;;;;;5054321;28;20432;-91
2022/10/06 04:30:31;;;;;;;;;;;16.60;93.10;;;;;;5054991;28;19947;-91
2022/10/06 04:32:57;;;;;;;;;;;16.60;93.20;;;;;;5054974;28;19949;-91
2022/10/06 04:35:23;;;;;;;;;;;16.60;93.30;;;;;;5055050;28;19940;-91
2022/10/06 04:37:48;;;;;;;;;;;16.60;93.30;;;;;;5054635;28;19945;-90
2022/10/06 04:40:14;;;;;;;;;;;16.70;93.20;;;;;;5048335;28;20002;-91
2022/10/06 04:42:40;;;;;;;;;;;16.70;93.20;;;;;;5064400;28;20345;-91
2022/10/06 04:45:06;;;;;;;;;;;16.70;93.20;;;;;;5074856;28;20312;-91
2022/10/06 04:47:32;;;;;;;;;;;16.70;93.10;;;;;;5038099;28;20334;-92
2022/10/06 04:49:57;;;;;;;;;;;16.80;93.00;;;;;;5054048;28;20025;-91
2022/10/06 04:52:23;;;;;;;;;;;16.80;92.90;;;;;;5054643;28;20420;-91
2022/10/06 04:54:48;;;;;;;;;;;16.80;92.80;;;;;;5054664;28;19936;-91
2022/10/06 04:57:14;;;;;;;;;;;16.80;92.70;;;;;;5055171;28;19950;-91
2022/10/06 05:02:24;;;;;;;;;;;16.80;92.40;;;;;;5054356;28;20462;-91
2022/10/06 05:04:49;;;;;;;;;;;16.80;92.20;;;;;;5054258;28;20052;-90
2022/10/06 05:07:15;;;;;;;;;;;16.80;92.10;;;;;;5054178;28;20034;-90
2022/10/06 05:09:40;;;;;;;;;;;16.80;92.10;;;;;;5053932;28;20005;-90
2022/10/06 05:12:09;;;;;;;;;;;16.80;92.00;;;;;;5054216;28;19976;-91
2022/10/06 05:14:34;;;;;;;;;;;16.90;91.90;;;;;;5054615;28;19948;-91
2022/10/06 05:17:00;;;;;;;;;;;16.90;91.80;;;;;;5054059;28;19940;-91
2022/10/06 05:19:25;;;;;;;;;;;16.90;91.60;;;;;;5053599;28;20037;-91
2022/10/06 05:21:51;;;;;;;;;;;16.90;91.50;;;;;;5054191;28;19949;-91
2022/10/06 05:24:16;;;;;;;;;;;16.90;91.30;;;;;;5053912;28;19943;-91
2022/10/06 05:26:42;;;;;;;;;;;17.00;91.20;;;;;;5054095;28;19946;-91
2022/10/06 05:29:07;;;;;;;;;;;17.00;91.00;;;;;;5053694;28;19960;-91
2022/10/06 05:31:37;;;;;;;;;;;17.00;90.90;;;;;;5053966;28;19942;-91
2022/10/06 05:34:03;;;;;;;;;;;17.00;90.80;;;;;;5047711;28;19983;-90
2022/10/06 05:36:30;;;;;;;;;;;17.00;90.60;;;;;;5051426;28;19983;-91
2022/10/06 05:38:56;;;;;;;;;;;17.00;90.30;;;;;;5053330;28;19948;-89
2022/10/06 05:41:22;;;;;;;;;;;17.00;90.10;;;;;;5031958;28;20385;-90
2022/10/06 05:43:48;;;;;;;;;;;17.00;90.00;;;;;;5044112;28;19955;-90
2022/10/06 05:46:23;;;;;;;;;;;17.10;90.00;;;;;;5052002;28;19954;-91
2022/10/06 05:49:15;;;;;;;;;;;17.00;90.10;;;;;;5032918;28;20446;-89
2022/10/06 05:51:41;;;;;;;;;;;17.10;90.30;;;;;;5037146;28;19959;-90
2022/10/06 05:54:06;;;;;;;;;;;17.00;90.40;;;;;;5042175;28;19965;-90
2022/10/06 05:56:33;;;;;;;;;;;17.00;90.50;;;;;;5046871;28;20037;-89
2022/10/06 05:58:59;;;;;;;;;;;17.00;90.40;;;;;;5064087;28;19951;-90
2022/10/06 06:01:27;;;;;;;;;;;17.00;90.50;;;;;;5058112;28;20454;-90
2022/10/06 06:04:01;;;;;;;;;;;17.00;90.50;;;;;;5034784;28;19954;-90
2022/10/06 06:06:31;;;;;;;;;;;16.90;90.50;;;;;;5059974;23;20044;-90
2022/10/06 06:08:58;;;;;;;;;;;17.00;90.60;;;;;;5052734;28;20343;-90
2022/10/06 06:11:26;;;;;;;;;;;17.10;90.10;;;;;;5051519;28;20461;-90
2022/10/06 06:13:56;;;;;;;;;;;17.10;89.80;;;;;;5050591;28;19938;-90
2022/10/06 06:16:22;;;;;;;;;;;17.10;89.80;;;;;;5064305;28;20421;-89
2022/10/06 06:18:47;;;;;;;;;;;17.10;89.90;;;;;;5073051;28;19995;-90
2022/10/06 06:21:13;;;;;;;;;;;17.00;90.00;;;;;;5071732;28;19945;-90
2022/10/06 06:23:40;;;;;;;;;;;17.10;90.00;;;;;;5073075;28;19944;-90
2022/10/06 06:26:07;;;;;;;;;;;17.10;90.00;;;;;;5072947;28;19939;-90
2022/10/06 06:28:34;;;;;;;;;;;17.10;89.90;;;;;;5044294;28;20059;-89
2022/10/06 06:31:04;;;;;;;;;;;17.10;90.00;;;;;;5033100;28;20312;-89
2022/10/06 06:33:30;;;;;;;;;;;17.00;90.20;;;;;;5033054;28;19943;-90
2022/10/06 06:35:56;;;;;;;;;;;17.00;90.30;;;;;;5032996;28;19950;-90
2022/10/06 06:38:22;;;;;;;;;;;17.10;90.20;;;;;;5033041;28;19943;-90
2022/10/06 06:40:48;;;;;;;;;;;17.10;90.10;;;;;;5035178;28;19954;-90
2022/10/06 06:43:13;;;;;;;;;;;17.10;90.00;;;;;;5052983;28;19949;-90
2022/10/06 06:45:39;;;;;;;;;;;17.10;90.00;;;;;;5052112;28;20397;-90
2022/10/06 06:48:04;;;;;;;;;;;17.10;90.00;;;;;;5052370;28;19970;-90
2022/10/06 06:50:30;;;;;;;;;;;17.10;89.90;;;;;;5052138;28;20294;-90
2022/10/06 06:52:56;;;;;;;;;;;17.20;90.10;;;;;;5051989;28;19997;-89
2022/10/06 06:55:22;;;;;;;;;;;17.20;90.10;;;;;;5051692;28;19957;-90
2022/10/06 06:57:48;;;;;;;;;;;17.30;90.00;;;;;;5056806;28;19944;-89
2022/10/06 07:00:15;;;;;;;;;;;17.30;89.90;;;;;;5062468;28;19948;-90
2022/10/06 07:02:41;;;;;;;;;;;17.40;89.80;;;;;;5055521;28;19951;-90
2022/10/06 07:05:07;;;;;;;;;;;17.50;89.70;;;;;;5065533;28;19968;-90
2022/10/06 07:07:32;;;;;;;;;;;17.60;89.40;;;;;;5062133;28;19966;-89
2022/10/06 07:09:58;;;;;;;;;;;17.80;89.00;;;;;;5063238;28;19939;-89
2022/10/06 07:12:24;;;;;;;;;;;17.80;88.30;;;;;;5062288;28;20365;-89
2022/10/06 07:25:46;;;;;;;;;;;18.30;85.30;;;;;;5055392;28;20426;-90
2022/10/06 07:28:12;;;;;;;;;;;18.30;85.30;;;;;;5052241;28;19961;-90
2022/10/06 07:30:38;;;;;;;;;;;18.30;85.30;;;;;;5054051;28;20432;-90
2022/10/06 07:33:04;;;;;;;;;;;18.30;85.20;;;;;;5064057;28;19953;-90
2022/10/06 07:35:29;;;;;;;;;;;18.30;85.20;;;;;;5069319;28;20285;-90
2022/10/06 07:38:01;;;;;;;;;;;18.40;85.00;;;;;;5055312;28;19943;-90
2022/10/06 07:40:26;;;;;;;;;;;18.40;84.80;;;;;;5063145;28;19951;-91
2022/10/06 07:42:52;;;;;;;;;;;18.40;84.50;;;;;;5062109;28;19963;-90
2022/10/06 07:45:40;;;;;;;;;;;18.50;84.00;;;;;;5047481;28;19958;-90
2022/10/06 07:48:08;;;;;;;;;;;18.50;83.90;;;;;;5053268;28;19957;-90
2022/10/06 07:50:34;;;;;;;;;;;18.50;84.10;;;;;;5054065;28;19940;-90
2022/10/06 07:53:00;;;;;;;;;;;18.50;84.10;;;;;;5053735;28;19941;-89
2022/10/06 07:55:26;;;;;;;;;;;18.50;84.10;;;;;;5057027;28;19941;-90
2022/10/06 07:57:51;;;;;;;;;;;18.60;83.80;;;;;;5066458;28;20382;-90
2022/10/06 08:00:21;;;;;;;;;;;18.70;83.70;;;;;;5064518;28;19943;-90
2022/10/06 08:02:47;;;;;;;;;;;18.70;83.50;;;;;;5067114;28;19998;-89
2022/10/06 08:05:12;;;;;;;;;;;18.80;83.80;;;;;;5036965;28;19979;-90
2022/10/06 08:07:38;;;;;;;;;;;18.80;83.70;;;;;;5053964;28;19965;-90
2022/10/06 08:10:04;;;;;;;;;;;18.80;83.70;;;;;;5054900;28;19992;-90
2022/10/06 08:12:32;;;;;;;;;;;18.90;83.30;;;;;;5054898;28;20033;-89
2022/10/06 08:15:00;;;;;;;;;;;18.90;83.20;;;;;;5048568;28;19945;-90
2022/10/06 08:17:26;;;;;;;;;;;19.00;83.10;;;;;;5050084;28;19949;-91
2022/10/06 08:19:53;;;;;;;;;;;19.10;82.80;;;;;;5052460;28;19995;-91
2022/10/06 08:22:18;;;;;;;;;;;19.20;82.70;;;;;;5052639;28;19956;-89
2022/10/06 08:24:44;;;;;;;;;;;19.30;82.40;;;;;;5050523;28;19954;-89
2022/10/06 08:27:10;;;;;;;;;;;19.30;82.20;;;;;;5052181;28;19953;-90
2022/10/06 08:29:35;;;;;;;;;;;19.30;82.20;;;;;;5045548;28;19969;-91
2022/10/06 08:32:01;;;;;;;;;;;19.40;81.90;;;;;;5051697;28;20402;-90
2022/10/06 08:34:27;;;;;;;;;;;19.40;81.90;;;;;;5053491;28;19948;-92
2022/10/06 08:36:53;;;;;;;;;;;19.40;81.20;;;;;;5054133;28;19949;-89
2022/10/06 08:39:19;;;;;;;;;;;19.50;81.00;;;;;;5059412;28;19952;-90
2022/10/06 08:41:48;;;;;;;;;;;19.50;81.20;;;;;;5053370;28;19948;-89
2022/10/06 08:44:18;;;;;;;;;;;19.60;81.10;;;;;;5052013;28;20464;-90
2022/10/06 08:46:49;;;;;;;;;;;19.60;80.70;;;;;;5053349;28;19940;-92
2022/10/06 08:49:17;;;;;;;;;;;19.70;80.80;;;;;;5052998;28;20043;-91
2022/10/06 08:51:43;;;;;;;;;;;19.80;80.70;;;;;;5051278;28;20330;-90
2022/10/06 08:54:13;;;;;;;;;;;19.90;79.80;;;;;;5057894;28;19966;-90
2022/10/06 08:56:47;;;;;;;;;;;19.90;79.30;;;;;;5055526;28;19950;-89
2022/10/06 08:59:15;;;;;;;;;;;20.00;79.50;;;;;;5051849;28;19941;-90
2022/10/06 09:01:43;;;;;;;;;;;20.10;78.60;;;;;;5058445;28;19946;-90
2022/10/06 09:04:12;;;;;;;;;;;20.10;78.70;;;;;;5043542;28;19971;-91
2022/10/06 09:06:59;;;;;;;;;;;20.30;78.90;;;;;;5051082;28;20405;-91
2022/10/06 09:09:30;;;;;;;;;;;20.30;78.70;;;;;;5048437;28;19994;-91
2022/10/06 09:12:06;;;;;;;;;;;20.40;77.90;;;;;;5036128;28;19944;-91
2022/10/06 09:14:36;;;;;;;;;;;20.50;77.80;;;;;;5048403;28;20037;-90
2022/10/06 09:17:05;;;;;;;;;;;20.60;77.30;;;;;;5052781;28;19941;-91
2022/10/06 09:19:31;;;;;;;;;;;20.70;77.30;;;;;;5035892;28;19952;-91
2022/10/06 09:21:58;;;;;;;;;;;20.80;77.10;;;;;;5054487;28;19944;-91
2022/10/06 09:24:33;;;;;;;;;;;21.00;76.90;;;;;;5065921;28;20739;-91
2022/10/06 09:26:59;;;;;;;;;;;21.00;76.80;;;;;;5065030;28;19980;-90
2022/10/06 09:29:26;;;;;;;;;;;21.20;76.50;;;;;;5063767;28;20335;-91
2022/10/06 09:31:52;;;;;;;;;;;21.30;76.50;;;;;;5060146;28;19957;-91
2022/10/06 09:34:21;;;;;;;;;;;21.40;76.20;;;;;;5053681;28;19945;-91
2022/10/06 09:36:58;;;;;;;;;;;21.50;76.70;;;;;;5055166;28;19942;-90
2022/10/06 09:39:25;;;;;;;;;;;21.60;76.40;;;;;;5063372;28;19945;-89
2022/10/06 09:41:50;;;;;;;;;;;21.70;75.50;;;;;;5053908;28;19950;-90
2022/10/06 09:44:23;;;;;;;;;;;21.80;74.60;;;;;;5073442;28;20417;-91
2022/10/06 09:46:48;;;;;;;;;;;21.70;74.20;;;;;;5040304;28;19948;-91
2022/10/06 09:49:15;;;;;;;;;;;21.80;75.30;;;;;;5052946;28;20048;-91
2022/10/06 09:51:56;;;;;;;;;;;21.90;74.80;;;;;;5037375;28;19963;-90
2022/10/06 09:54:23;;;;;;;;;;;22.00;73.90;;;;;;5050550;28;19989;-91
2022/10/06 09:56:49;;;;;;;;;;;22.10;73.10;;;;;;5052024;28;20590;-91
2022/10/06 09:59:34;;;;;;;;;;;22.20;71.60;;;;;;5034075;28;20036;-90
2022/10/06 10:02:00;;;;;;;;;;;22.40;72.10;;;;;;5051411;28;19941;-90
2022/10/06 10:04:29;;;;;;;;;;;22.50;70.60;;;;;;5050167;28;19989;-89
2022/10/06 10:07:12;;;;;;;;;;;22.80;72.20;;;;;;5051448;28;19953;-90
2022/10/06 10:09:40;;;;;;;;;;;22.80;70.40;;;;;;5051510;28;19961;-90
2022/10/06 10:12:26;;;;;;;;;;;22.90;70.70;;;;;;5052138;28;19942;-90
2022/10/06 10:15:12;;;;;;;;;;;23.00;68.50;;;;;;5034920;28;20006;-89
2022/10/06 10:17:41;;;;;;;;;;;23.10;68.60;;;;;;5041361;28;19966;-90
2022/10/06 10:20:27;;;;;;;;;;;23.20;67.30;;;;;;5049569;28;19943;-90
2022/10/06 10:23:16;;;;;;;;;;;23.30;66.40;;;;;;5039441;28;19943;-90
2022/10/06 10:25:44;;;;;;;;;;;23.50;65.30;;;;;;5036590;28;19948;-91
2022/10/06 10:28:19;;;;;;;;;;;23.60;65.60;;;;;;5051180;28;20317;-90
2022/10/06 10:31:04;;;;;;;;;;;23.50;65.70;;;;;;5058174;28;19953;-90
2022/10/06 10:33:54;;;;;;;;;;;23.60;66.80;;;;;;5036829;28;20085;-90
2022/10/06 10:36:24;;;;;;;;;;;23.80;65.90;;;;;;5051891;28;19978;-90
2022/10/06 10:38:51;;;;;;;;;;;24.00;64.20;;;;;;5048460;28;19950;-90
2022/10/06 10:41:24;;;;;;;;;;;24.20;61.80;;;;;;5049548;28;19983;-90
2022/10/06 10:43:50;;;;;;;;;;;24.30;62.10;;;;;;5048675;28;19947;-90
2022/10/06 10:46:15;;;;;;;;;;;24.30;62.50;;;;;;5047476;28;20036;-90
2022/10/06 10:48:47;;;;;;;;;;;24.40;62.70;;;;;;5053468;28;19958;-90
2022/10/06 10:51:25;;;;;;;;;;;24.50;61.60;;;;;;5051995;28;19964;-90
2022/10/06 10:53:57;;;;;;;;;;;24.60;60.70;;;;;;5062384;28;20004;-91
2022/10/06 10:56:23;;;;;;;;;;;24.80;59.70;;;;;;5057649;28;19989;-90
2022/10/06 10:58:54;;;;;;;;;;;25.00;57.40;;;;;;5061233;28;20360;-91
2022/10/06 11:01:32;;;;;;;;;;;25.10;57.40;;;;;;5049708;28;19950;-90
2022/10/06 11:03:57;;;;;;;;;;;25.30;59.60;;;;;;5054234;28;19951;-89
2022/10/06 11:06:35;;;;;;;;;;;25.30;56.30;;;;;;5055999;28;20370;-90
2022/10/06 11:09:04;;;;;;;;;;;25.20;55.50;;;;;;5056396;28;19967;-89
2022/10/06 11:11:40;;;;;;;;;;;24.80;57.30;;;;;;5055580;28;19947;-90
2022/10/06 11:14:23;;;;;;;;;;;24.80;59.70;;;;;;5056053;28;19963;-89
2022/10/06 11:16:54;;;;;;;;;;;24.90;58.70;;;;;;5037076;28;20401;-90
2022/10/06 11:19:23;;;;;;;;;;;24.90;58.40;;;;;;5056159;28;19946;-90
2022/10/06 11:21:52;;;;;;;;;;;24.90;58.70;;;;;;5055601;28;19949;-89
2022/10/06 11:24:21;;;;;;;;;;;24.50;58.80;;;;;;5037926;28;19956;-90
2022/10/06 11:26:47;;;;;;;;;;;24.20;59.20;;;;;;5053499;28;20034;-89
2022/10/06 11:29:13;;;;;;;;;;;23.90;59.90;;;;;;5054589;28;19964;-90
2022/10/06 11:32:00;;;;;;;;;;;23.80;60.20;;;;;;5052271;28;19964;-91
2022/10/06 11:34:25;;;;;;;;;;;23.70;60.60;;;;;;5042094;28;19950;-90
2022/10/06 11:36:55;;;;;;;;;;;23.50;63.30;;;;;;5058787;28;19948;-90
2022/10/06 11:39:30;;;;;;;;;;;23.30;61.80;;;;;;5053584;28;19952;-90
2022/10/06 11:42:04;;;;;;;;;;;23.40;62.60;;;;;;5060777;28;20415;-91
2022/10/06 11:44:35;;;;;;;;;;;23.50;63.60;;;;;;5061719;28;20040;-90
2022/10/06 11:47:06;;;;;;;;;;;23.80;63.10;;;;;;5059671;28;19959;-90
2022/10/06 11:49:32;;;;;;;;;;;24.00;62.50;;;;;;5054545;28;20479;-89
2022/10/06 11:52:07;;;;;;;;;;;24.30;61.00;;;;;;5034198;28;20094;-90
2022/10/06 11:54:38;;;;;;;;;;;24.60;58.80;;;;;;5052145;28;20400;-90
2022/10/06 11:57:22;;;;;;;;;;;25.20;59.40;;;;;;5055878;28;19940;-90
2022/10/06 11:59:55;;;;;;;;;;;25.40;57.10;;;;;;5054613;28;20423;-89
2022/10/06 12:02:39;;;;;;;;;;;25.20;57.50;;;;;;5049415;28;19950;-90
2022/10/06 12:05:10;;;;;;;;;;;25.00;58.30;;;;;;5051732;28;19979;-90
2022/10/06 12:07:51;;;;;;;;;;;25.00;59.10;;;;;;5059910;28;19939;-91
2022/10/06 12:10:28;;;;;;;;;;;24.90;57.90;;;;;;5049418;28;19942;-90
2022/10/06 12:12:58;;;;;;;;;;;24.90;58.10;;;;;;5052484;28;19948;-90
2022/10/06 12:15:36;;;;;;;;;;;25.20;57.50;;;;;;5051684;28;20051;-91
2022/10/06 12:18:06;;;;;;;;;;;25.20;57.60;;;;;;5050911;28;20408;-91
2022/10/06 13:13:39;;;;;;;;;;;30.30;41.50;;;;;;5028916;28;19973;-90
2022/10/06 13:16:07;;;;;;;;;;;29.20;44.30;;;;;;4996711;28;19954;-90
2022/10/06 13:18:32;;;;;;;;;;;30.00;44.40;;;;;;5013751;28;19950;-91
2022/10/06 13:20:59;;;;;;;;;;;31.00;42.10;;;;;;5013490;28;20041;-91
2022/10/06 13:23:25;;;;;;;;;;;32.20;39.00;;;;;;5012591;28;19958;-90
2022/10/06 13:26:00;;;;;;;;;;;33.20;36.90;;;;;;5009888;28;20040;-91
2022/10/06 13:28:26;;;;;;;;;;;33.60;36.10;;;;;;5010631;28;20124;-91
2022/10/06 13:30:59;;;;;;;;;;;34.10;35.60;;;;;;5018474;28;20035;-91
2022/10/06 13:33:32;;;;;;;;;;;34.70;33.90;;;;;;5016526;28;19961;-91
2022/10/06 13:35:58;;;;;;;;;;;34.70;33.80;;;;;;5015991;28;19944;-91
2022/10/06 13:38:23;;;;;;;;;;;34.80;33.70;;;;;;5020776;28;19941;-91
2022/10/06 13:41:08;;;;;;;;;;;34.20;35.80;;;;;;5018815;28;19972;-91
2022/10/06 13:43:37;;;;;;;;;;;34.40;34.90;;;;;;5013556;28;19950;-91
2022/10/06 13:46:08;;;;;;;;;;;34.10;35.60;;;;;;5020118;28;19947;-91
2022/10/06 13:48:34;;;;;;;;;;;33.50;36.30;;;;;;5008928;28;19968;-90
2022/10/06 13:51:02;;;;;;;;;;;31.70;39.30;;;;;;5021286;28;20346;-90
2022/10/06 13:53:29;;;;;;;;;;;31.60;39.90;;;;;;5018859;28;20103;-90
2022/10/06 13:55:55;;;;;;;;;;;31.20;40.20;;;;;;5020405;28;19946;-90
2022/10/06 13:58:24;;;;;;;;;;;30.30;42.00;;;;;;5020169;28;19963;-90
2022/10/06 14:00:59;;;;;;;;;;;29.80;43.70;;;;;;5015943;28;19950;-91
2022/10/06 14:03:26;;;;;;;;;;;29.40;44.80;;;;;;5012838;28;20035;-91
2022/10/06 14:06:06;;;;;;;;;;;29.20;45.50;;;;;;5050213;23;19978;-91
2022/10/06 14:08:32;;;;;;;;;;;29.50;44.50;;;;;;5050527;28;19968;-90
2022/10/06 14:11:07;;;;;;;;;;;29.40;45.30;;;;;;5045314;28;20187;-90
2022/10/06 14:13:50;;;;;;;;;;;29.30;45.80;;;;;;5047781;28;19955;-90
2022/10/06 14:16:23;;;;;;;;;;;29.20;45.70;;;;;;5049697;28;19955;-91
2022/10/06 14:18:52;;;;;;;;;;;29.20;45.80;;;;;;5049706;28;19955;-90
2022/10/06 14:21:30;;;;;;;;;;;29.20;46.00;;;;;;5045434;28;20158;-91
2022/10/06 14:23:56;;;;;;;;;;;29.40;45.40;;;;;;5046504;28;19959;-91
2022/10/06 14:26:25;;;;;;;;;;;30.40;43.90;;;;;;5052687;28;19954;-90
2022/10/06 14:28:51;;;;;;;;;;;31.30;41.90;;;;;;5050428;28;20048;-91
2022/10/06 14:31:20;;;;;;;;;;;31.30;41.00;;;;;;5045968;28;19943;-90
2022/10/06 14:33:47;;;;;;;;;;;31.00;41.70;;;;;;5048068;28;19949;-90
2022/10/06 14:36:17;;;;;;;;;;;31.30;41.40;;;;;;5049765;28;19997;-90
2022/10/06 14:38:44;;;;;;;;;;;31.70;40.80;;;;;;5050819;28;19950;-90
2022/10/06 14:41:10;;;;;;;;;;;31.80;40.60;;;;;;5050318;28;19961;-90
2022/10/06 14:43:35;;;;;;;;;;;31.90;40.20;;;;;;5028660;28;19960;-90
2022/10/06 14:46:02;;;;;;;;;;;32.00;40.40;;;;;;5032021;28;19948;-90
2022/10/06 14:48:27;;;;;;;;;;;32.20;39.10;;;;;;5052742;28;19966;-90
2022/10/06 14:50:53;;;;;;;;;;;33.10;38.00;;;;;;5052506;28;19961;-91
2022/10/06 14:53:18;;;;;;;;;;;33.20;36.90;;;;;;5060530;28;19998;-91
2022/10/06 14:55:44;;;;;;;;;;;33.30;37.10;;;;;;5057284;28;19988;-91
2022/10/06 14:58:10;;;;;;;;;;;32.90;38.10;;;;;;5062772;28;19973;-91
2022/10/06 15:00:38;;;;;;;;;;;32.40;38.60;;;;;;5061417;28;20306;-90
2022/10/06 15:03:03;;;;;;;;;;;32.30;39.50;;;;;;5062589;28;20390;-91
2022/10/06 15:05:29;;;;;;;;;;;32.90;38.50;;;;;;5060106;28;19968;-91
2022/10/06 15:08:10;;;;;;;;;;;32.90;37.90;;;;;;5038251;28;19978;-90
2022/10/06 15:10:37;;;;;;;;;;;32.80;38.30;;;;;;5053522;28;19948;-90
2022/10/06 15:13:05;;;;;;;;;;;33.00;38.40;;;;;;5055841;28;19956;-91
2022/10/06 15:15:32;;;;;;;;;;;33.20;37.70;;;;;;5042501;28;19962;-91
2022/10/06 15:17:58;;;;;;;;;;;33.00;37.70;;;;;;5051503;28;19947;-91
2022/10/06 15:20:24;;;;;;;;;;;33.00;37.40;;;;;;5048165;28;19948;-91
2022/10/06 15:22:49;;;;;;;;;;;32.60;38.50;;;;;;5064440;28;19945;-90
2022/10/06 15:30:43;;;;;;;;;;;33.00;37.70;;;;;;5057789;28;20041;-90
2022/10/06 15:33:08;;;;;;;;;;;31.90;39.10;;;;;;5054989;28;20034;-90
2022/10/06 15:35:34;;;;;;;;;;;31.40;40.50;;;;;;5059323;28;20431;-90